Map

Track Data

SID SEASON NUMBER BASIN SUBBASIN NAME ISO_TIME NATURE LAT LON WMO_WIND WMO_PRES WMO_AGENCY TRACK_TYPE DIST2LAND LANDFALL IFLAG USA_AGENCY USA_ATCF_ID USA_LAT USA_LON USA_RECORD USA_STATUS USA_WIND USA_PRES USA_SSHS USA_R34_NE USA_R34_SE USA_R34_SW USA_R34_NW USA_R50_NE USA_R50_SE USA_R50_SW USA_R50_NW USA_R64_NE USA_R64_SE USA_R64_SW USA_R64_NW USA_POCI USA_ROCI USA_RMW USA_EYE TOKYO_LAT TOKYO_LON TOKYO_GRADE TOKYO_WIND TOKYO_PRES TOKYO_R50_DIR TOKYO_R50_LONG TOKYO_R50_SHORT TOKYO_R30_DIR TOKYO_R30_LONG TOKYO_R30_SHORT TOKYO_LAND CMA_LAT CMA_LON CMA_CAT CMA_WIND CMA_PRES HKO_LAT HKO_LON HKO_CAT HKO_WIND HKO_PRES NEWDELHI_LAT NEWDELHI_LON NEWDELHI_GRADE NEWDELHI_WIND NEWDELHI_PRES NEWDELHI_CI NEWDELHI_DP NEWDELHI_POCI REUNION_LAT REUNION_LON REUNION_TYPE REUNION_WIND REUNION_PRES REUNION_TNUM REUNION_CI REUNION_RMW REUNION_R34_NE REUNION_R34_SE REUNION_R34_SW REUNION_R34_NW REUNION_R50_NE REUNION_R50_SE REUNION_R50_SW REUNION_R50_NW REUNION_R64_NE REUNION_R64_SE REUNION_R64_SW REUNION_R64_NW BOM_LAT BOM_LON BOM_TYPE BOM_WIND BOM_PRES BOM_TNUM BOM_CI BOM_RMW BOM_R34_NE BOM_R34_SE BOM_R34_SW BOM_R34_NW BOM_R50_NE BOM_R50_SE BOM_R50_SW BOM_R50_NW BOM_R64_NE BOM_R64_SE BOM_R64_SW BOM_R64_NW BOM_ROCI BOM_POCI BOM_EYE BOM_POS_METHOD BOM_PRES_METHOD NADI_LAT NADI_LON NADI_CAT NADI_WIND NADI_PRES WELLINGTON_LAT WELLINGTON_LON WELLINGTON_WIND WELLINGTON_PRES DS824_LAT DS824_LON DS824_STAGE DS824_WIND DS824_PRES TD9636_LAT TD9636_LON TD9636_STAGE TD9636_WIND TD9636_PRES TD9635_LAT TD9635_LON TD9635_WIND TD9635_PRES TD9635_ROCI NEUMANN_LAT NEUMANN_LON NEUMANN_CLASS NEUMANN_WIND NEUMANN_PRES MLC_LAT MLC_LON MLC_CLASS MLC_WIND MLC_PRES USA_GUST BOM_GUST BOM_GUST_PER REUNION_GUST REUNION_GUST_PER USA_SEAHGT USA_SEARAD_NE USA_SEARAD_SE USA_SEARAD_SW USA_SEARAD_NW STORM_SPEED STORM_DIR
1997198N27267 1997 54 NA GM DANNY 1997-07-16 12:00:00 TS 27.4000 -92.6000 25 1013 hurdat_atl main 236 236 O_____________ hurdat_atl AL051997 27.4000 -92.6000 TD 25 1013 -1 1 44
1997198N27267 1997 54 NA GM DANNY 1997-07-16 15:00:00 TS 27.4400 -92.5575 main 236 224 P_____________ AL051997 27.4400 -92.5575 TD 27 1013 -1 1 40
1997198N27267 1997 54 NA GM DANNY 1997-07-16 18:00:00 TS 27.5000 -92.5000 30 1013 hurdat_atl main 224 212 O_____________ hurdat_atl AL051997 27.5000 -92.5000 TD 30 1013 -1 2 40
1997198N27267 1997 54 NA GM DANNY 1997-07-16 21:00:00 TS 27.5925 -92.4150 main 212 200 P_____________ AL051997 27.5925 -92.4150 TD 30 1012 -1 3 42
1997198N27267 1997 54 NA GM DANNY 1997-07-17 00:00:00 TS 27.7000 -92.3000 30 1011 hurdat_atl main 200 189 O_____________ hurdat_atl AL051997 27.7000 -92.3000 TD 30 1011 -1 3 48
1997198N27267 1997 54 NA GM DANNY 1997-07-17 03:00:00 TS 27.7849 -92.1798 main 189 169 P_____________ AL051997 27.7849 -92.1798 TD 30 1009 -1 3 53
1997198N27267 1997 54 NA GM DANNY 1997-07-17 06:00:00 TS 27.9000 -92.0000 30 1007 hurdat_atl main 169 136 O_____________ hurdat_atl AL051997 27.9000 -92.0000 TD 30 1007 -1 5 54
1997198N27267 1997 54 NA GM DANNY 1997-07-17 09:00:00 TS 28.0926 -91.7077 main 136 101 P_____________ AL051997 28.0926 -91.7077 TD 35 1005 0 7 53
1997198N27267 1997 54 NA GM DANNY 1997-07-17 12:00:00 TS 28.3000 -91.4000 40 1003 hurdat_atl main 101 83 O_____________ hurdat_atl AL051997 28.3000 -91.4000 TS 40 1003 0 6 50
1997198N27267 1997 54 NA GM DANNY 1997-07-17 15:00:00 TS 28.4572 -91.2147 main 73 56 P_____________ AL051997 28.4572 -91.2147 TS 45 1002 0 5 49
1997198N27267 1997 54 NA GM DANNY 1997-07-17 18:00:00 TS 28.6000 -91.0000 50 1002 hurdat_atl main 56 44 O_____________ hurdat_atl AL051997 28.6000 -91.0000 TS 50 1002 0 6 62
1997198N27267 1997 54 NA GM DANNY 1997-07-17 21:00:00 TS 28.7504 -90.5927 main 33 22 P_____________ AL051997 28.7504 -90.5927 TS 52 999 0 8 67
1997198N27267 1997 54 NA GM DANNY 1997-07-18 00:00:00 TS 28.9000 -90.2000 55 997 hurdat_atl main 22 9 O_____________ hurdat_atl AL051997 28.9000 -90.2000 TS 55 997 0 6 58
1997198N27267 1997 54 NA GM DANNY 1997-07-18 03:00:00 TS 29.0600 -90.0260 main 9 9 P_____________ AL051997 29.0600 -90.0260 TS 60 994 0 4 41
1997198N27267 1997 54 NA GM DANNY 1997-07-18 06:00:00 TS 29.2000 -89.9000 65 992 hurdat_atl main 14 0 O_____________ hurdat_atl AL051997 29.2000 -89.9000 HU 65 992 1 4 50
1997198N27267 1997 54 NA GM DANNY 1997-07-18 09:00:00 TS 29.3000 -89.7000 65 989 hurdat_atl main 0 0 O_____________ hurdat_atl AL051997 29.3000 -89.7000 L HU 65 989 1 5 55
1997198N27267 1997 54 NA GM DANNY 1997-07-18 12:00:00 TS 29.5000 -89.4000 70 990 hurdat_atl main 9 9 O_____________ hurdat_atl AL051997 29.5000 -89.4000 HU 70 990 1 5 53
1997198N27267 1997 54 NA GM DANNY 1997-07-18 15:00:00 TS 29.6271 -89.1930 main 22 22 P_____________ AL051997 29.6271 -89.1930 HU 70 989 1 4 60
1997198N27267 1997 54 NA GM DANNY 1997-07-18 18:00:00 TS 29.7000 -89.0000 70 988 hurdat_atl main 31 31 O_____________ hurdat_atl AL051997 29.7000 -89.0000 HU 70 988 1 4 75
1997198N27267 1997 54 NA GM DANNY 1997-07-18 21:00:00 TS 29.7426 -88.6924 main 58 55 P_____________ AL051997 29.7426 -88.6924 HU 70 986 1 5 79
1997198N27267 1997 54 NA GM DANNY 1997-07-19 00:00:00 TS 29.8000 -88.4000 70 984 hurdat_atl main 56 38 O_____________ hurdat_atl AL051997 29.8000 -88.4000 HU 70 984 1 5 64
1997198N27267 1997 54 NA GM DANNY 1997-07-19 03:00:00 TS 29.9494 -88.2014 main 38 14 P_____________ AL051997 29.9494 -88.2014 HU 67 985 1 4 41
1997198N27267 1997 54 NA GM DANNY 1997-07-19 06:00:00 TS 30.1000 -88.1000 65 987 hurdat_atl main 14 9 O_____________ hurdat_atl AL051997 30.1000 -88.1000 HU 65 987 1 2 19
1997198N27267 1997 54 NA GM DANNY 1997-07-19 09:00:00 TS 30.1676 -88.1147 main 9 9 P_____________ AL051997 30.1676 -88.1147 HU 68 984 1 2 0
1997198N27267 1997 54 NA GM DANNY 1997-07-19 10:00:00 TS 30.2000 -88.1000 70 984 hurdat_atl main 9 9 O_____________ hurdat_atl AL051997 30.2000 -88.1000 L HU 70 984 1 3 36
1997198N27267 1997 54 NA GM DANNY 1997-07-19 12:00:00 TS 30.3000 -88.0000 70 984 hurdat_atl main 9 0 O_____________ hurdat_atl AL051997 30.3000 -88.0000 HU 70 984 1 3 36
1997198N27267 1997 54 NA GM DANNY 1997-07-19 15:00:00 TS 30.3862 -87.9396 main 0 0 P_____________ AL051997 30.3862 -87.9396 HU 67 985 1 1 40
1997198N27267 1997 54 NA GM DANNY 1997-07-19 18:00:00 TS 30.4000 -87.9000 65 986 hurdat_atl main 0 0 O_____________ hurdat_atl AL051997 30.4000 -87.9000 L HU 65 986 1 2 102
1997198N27267 1997 54 NA GM DANNY 1997-07-19 21:00:00 TS 30.3501 -87.7499 main 0 0 P_____________ AL051997 30.3501 -87.7499 HU 62 988 0 3 111
1997198N27267 1997 54 NA GM DANNY 1997-07-20 00:00:00 TS 30.3000 -87.6000 60 991 hurdat_atl main 0 0 O_____________ hurdat_atl AL051997 30.3000 -87.6000 TS 60 991 0 2 97
1997198N27267 1997 54 NA GM DANNY 1997-07-20 03:00:00 TS 30.3275 -87.5350 main 0 0 P_____________ AL051997 30.3275 -87.5350 TS 52 994 0 1 40
1997198N27267 1997 54 NA NA DANNY 1997-07-20 06:00:00 TS 30.4000 -87.5000 45 998 hurdat_atl main 0 0 O_____________ hurdat_atl AL051997 30.4000 -87.5000 TS 45 998 0 2 24
1997198N27267 1997 54 NA GM DANNY 1997-07-20 09:00:00 TS 30.4925 -87.4425 main 0 0 P_____________ AL051997 30.4925 -87.4425 TS 40 999 0 2 25
1997198N27267 1997 54 NA NA DANNY 1997-07-20 12:00:00 TS 30.6000 -87.4000 35 1001 hurdat_atl main 0 0 O_____________ hurdat_atl AL051997 30.6000 -87.4000 TS 35 1001 0 2 17
1997198N27267 1997 54 NA NA DANNY 1997-07-20 15:00:00 TS 30.7000 -87.3850 main 0 0 P_____________ AL051997 30.7000 -87.3850 TS 32 1002 -1 2 8
1997198N27267 1997 54 NA NA DANNY 1997-07-20 18:00:00 TS 30.8000 -87.4000 30 1004 hurdat_atl main 0 0 O_____________ hurdat_atl AL051997 30.8000 -87.4000 TD 30 1004 -1 2 343
1997198N27267 1997 54 NA NA DANNY 1997-07-20 21:00:00 TS 30.8925 -87.4425 main 0 0 P_____________ AL051997 30.8925 -87.4425 TD 27 1005 -1 2 335
1997198N27267 1997 54 NA NA DANNY 1997-07-21 00:00:00 TS 31.0000 -87.5000 25 1006 hurdat_atl main 0 0 O_____________ hurdat_atl AL051997 31.0000 -87.5000 TD 25 1006 -1 3 338
1997198N27267 1997 54 NA NA DANNY 1997-07-21 03:00:00 TS 31.1350 -87.5575 main 0 0 P_____________ AL051997 31.1350 -87.5575 TD 22 1007 -1 3 344
1997198N27267 1997 54 NA NA DANNY 1997-07-21 06:00:00 TS 31.3000 -87.6000 20 1009 hurdat_atl main 0 0 O_____________ hurdat_atl AL051997 31.3000 -87.6000 TD 20 1009 -1 4 348
1997198N27267 1997 54 NA NA DANNY 1997-07-21 09:00:00 TS 31.4924 -87.6373 main 0 0 P_____________ AL051997 31.4924 -87.6373 TD 20 1009 -1 4 0
1997198N27267 1997 54 NA NA DANNY 1997-07-21 12:00:00 TS 31.7000 -87.6000 20 1010 hurdat_atl main 0 0 O_____________ hurdat_atl AL051997 31.7000 -87.6000 TD 20 1010 -1 4 27
1997198N27267 1997 54 NA NA DANNY 1997-07-21 15:00:00 TS 31.8701 -87.4076 main 0 0 P_____________ AL051997 31.8701 -87.4076 TD 20 1010 -1 5 40
1997198N27267 1997 54 NA NA DANNY 1997-07-21 18:00:00 TS 32.1000 -87.2000 20 1011 hurdat_atl main 0 0 O_____________ hurdat_atl AL051997 32.1000 -87.2000 TD 20 1011 -1 7 19
1997198N27267 1997 54 NA NA DANNY 1997-07-21 21:00:00 TS 32.5074 -87.1423 main 0 0 P_____________ AL051997 32.5074 -87.1423 TD 20 1011 -1 8 6
1997198N27267 1997 54 NA NA DANNY 1997-07-22 00:00:00 TS 32.9000 -87.1000 20 1011 hurdat_atl main 0 0 O_____________ hurdat_atl AL051997 32.9000 -87.1000 TD 20 1011 -1 6 15
1997198N27267 1997 54 NA NA DANNY 1997-07-22 03:00:00 TS 33.0950 -86.9575 main 0 0 P_____________ AL051997 33.0950 -86.9575 TD 20 1011 -1 4 40
1997198N27267 1997 54 NA NA DANNY 1997-07-22 06:00:00 TS 33.2000 -86.8000 20 1012 hurdat_atl main 0 0 O_____________ hurdat_atl AL051997 33.2000 -86.8000 TD 20 1012 -1 3 47
1997198N27267 1997 54 NA NA DANNY 1997-07-22 09:00:00 TS 33.2999 -86.6999 main 0 0 P_____________ AL051997 33.2999 -86.6999 TD 20 1012 -1 3 40
1997198N27267 1997 54 NA NA DANNY 1997-07-22 12:00:00 TS 33.4000 -86.6000 20 1013 hurdat_atl main 0 0 O_____________ hurdat_atl AL051997 33.4000 -86.6000 TD 20 1013 -1 3 40
1997198N27267 1997 54 NA NA DANNY 1997-07-22 15:00:00 TS 33.5425 -86.4575 main 0 0 P_____________ AL051997 33.5425 -86.4575 TD 20 1013 -1 4 40
1997198N27267 1997 54 NA NA DANNY 1997-07-22 18:00:00 TS 33.7000 -86.3000 20 1013 hurdat_atl main 0 0 O_____________ hurdat_atl AL051997 33.7000 -86.3000 TD 20 1013 -1 4 35
1997198N27267 1997 54 NA NA DANNY 1997-07-22 21:00:00 TS 33.8648 -86.1874 main 0 0 P_____________ AL051997 33.8648 -86.1874 TD 20 1012 -1 4 40
1997198N27267 1997 54 NA NA DANNY 1997-07-23 00:00:00 TS 34.0000 -86.0000 20 1012 hurdat_atl main 0 0 O_____________ hurdat_atl AL051997 34.0000 -86.0000 TD 20 1012 -1 5 67
1997198N27267 1997 54 NA NA DANNY 1997-07-23 03:00:00 TS 34.0652 -85.6299 main 0 0 P_____________ AL051997 34.0652 -85.6299 TD 20 1012 -1 7 81
1997198N27267 1997 54 NA NA DANNY 1997-07-23 06:00:00 TS 34.1000 -85.2000 20 1012 hurdat_atl main 0 0 O_____________ hurdat_atl AL051997 34.1000 -85.2000 TD 20 1012 -1 7 83
1997198N27267 1997 54 NA NA DANNY 1997-07-23 09:00:00 TS 34.1498 -84.8499 main 0 0 P_____________ AL051997 34.1498 -84.8499 TD 20 1012 -1 6 80
1997198N27267 1997 54 NA NA DANNY 1997-07-23 12:00:00 TS 34.2000 -84.5000 20 1012 hurdat_atl main 0 0 O_____________ hurdat_atl AL051997 34.2000 -84.5000 TD 20 1012 -1 6 80
1997198N27267 1997 54 NA NA DANNY 1997-07-23 15:00:00 TS 34.2495 -84.1449 main 0 0 P_____________ AL051997 34.2495 -84.1449 TD 20 1012 -1 7 81
1997198N27267 1997 54 NA NA DANNY 1997-07-23 18:00:00 TS 34.3000 -83.7000 20 1012 hurdat_atl main 0 0 O_____________ hurdat_atl AL051997 34.3000 -83.7000 TD 20 1012 -1 9 84
1997198N27267 1997 54 NA NA DANNY 1997-07-23 21:00:00 TS 34.3421 -83.1172 main 0 0 P_____________ AL051997 34.3421 -83.1172 TD 20 1012 -1 11 85
1997198N27267 1997 54 NA NA DANNY 1997-07-24 00:00:00 TS 34.4000 -82.4000 20 1012 hurdat_atl main 0 0 O_____________ hurdat_atl AL051997 34.4000 -82.4000 TD 20 1012 -1 13 85
1997198N27267 1997 54 NA NA DANNY 1997-07-24 03:00:00 TS 34.4628 -81.5643 main 0 0 P_____________ AL051997 34.4628 -81.5643 TD 20 1011 -1 14 82
1997198N27267 1997 54 NA NA DANNY 1997-07-24 06:00:00 TS 34.6000 -80.7000 20 1010 hurdat_atl main 0 0 O_____________ hurdat_atl AL051997 34.6000 -80.7000 TD 20 1010 -1 13 74
1997198N27267 1997 54 NA NA DANNY 1997-07-24 09:00:00 TS 34.8226 -80.0074 main 0 0 P_____________ AL051997 34.8226 -80.0074 TD 25 1007 -1 14 64
1997198N27267 1997 54 NA NA DANNY 1997-07-24 12:00:00 TS 35.2000 -79.2000 30 1004 hurdat_atl main 0 0 O_____________ hurdat_atl AL051997 35.2000 -79.2000 TD 30 1004 -1 18 59
1997198N27267 1997 54 NA NA DANNY 1997-07-24 15:00:00 TS 35.7615 -78.0777 main 0 0 P_____________ AL051997 35.7615 -78.0777 TD 35 1002 0 24 59
1997198N27267 1997 54 NA NA DANNY 1997-07-24 18:00:00 TS 36.4000 -76.7000 40 1000 hurdat_atl main 0 0 O_____________ hurdat_atl AL051997 36.4000 -76.7000 TS 40 1000 0 27 64
1997198N27267 1997 54 NA NA DANNY 1997-07-24 21:00:00 TS 36.9607 -75.0557 main 71 71 P_____________ AL051997 36.9607 -75.0557 TS 45 998 0 28 67
1997198N27267 1997 54 NA NA DANNY 1997-07-25 00:00:00 TS 37.5000 -73.5000 50 996 hurdat_atl main 165 165 O_____________ hurdat_atl AL051997 37.5000 -73.5000 TS 50 996 0 24 63
1997198N27267 1997 54 NA NA DANNY 1997-07-25 03:00:00 TS 38.0248 -72.3973 main 234 232 P_____________ AL051997 38.0248 -72.3973 TS 50 995 0 19 54
1997198N27267 1997 54 NA NA DANNY 1997-07-25 06:00:00 TS 38.6000 -71.6000 50 995 hurdat_atl main 253 220 O_____________ hurdat_atl AL051997 38.6000 -71.6000 TS 50 995 0 18 42
1997198N27267 1997 54 NA NA DANNY 1997-07-25 09:00:00 TS 39.3293 -70.8955 main 220 168 P_____________ AL051997 39.3293 -70.8955 TS 50 995 0 17 34
1997198N27267 1997 54 NA NA DANNY 1997-07-25 12:00:00 TS 40.0000 -70.4000 50 995 hurdat_atl main 168 129 O_____________ hurdat_atl AL051997 40.0000 -70.4000 TS 50 995 0 13 29
1997198N27267 1997 54 NA NA DANNY 1997-07-25 15:00:00 TS 40.4545 -70.0809 main 122 108 P_____________ AL051997 40.4545 -70.0809 TS 50 994 0 8 28
1997198N27267 1997 54 NA NA DANNY 1997-07-25 18:00:00 TS 40.7000 -69.9000 50 994 hurdat_atl main 108 98 O_____________ hurdat_atl AL051997 40.7000 -69.9000 TS 50 994 0 4 31
1997198N27267 1997 54 NA NA DANNY 1997-07-25 21:00:00 TS 40.7739 -69.8326 main 101 101 P_____________ AL051997 40.7739 -69.8326 TS 47 994 0 2 90
1997198N27267 1997 54 NA NA DANNY 1997-07-26 00:00:00 TS 40.7000 -69.6000 45 995 hurdat_atl main 116 116 O_____________ hurdat_atl AL051997 40.7000 -69.6000 TS 45 995 0 7 110
1997198N27267 1997 54 NA NA DANNY 1997-07-26 03:00:00 TS 40.5344 -68.9553 main 157 157 P_____________ AL051997 40.5344 -68.9553 TS 45 996 0 12 104
1997198N27267 1997 54 NA NA DANNY 1997-07-26 06:00:00 ET 40.4000 -68.0000 45 998 hurdat_atl main 221 221 O_____________ hurdat_atl AL051997 40.4000 -68.0000 EX 45 998 -4 16 93
1997198N27267 1997 54 NA NA DANNY 1997-07-26 09:00:00 ET 40.4475 -66.8754 main 296 296 P_____________ AL051997 40.4475 -66.8754 EX 42 1000 -4 18 84
1997198N27267 1997 54 NA NA DANNY 1997-07-26 12:00:00 ET 40.6000 -65.6000 40 1003 hurdat_atl main 322 309 O_____________ hurdat_atl AL051997 40.6000 -65.6000 EX 40 1003 -4 20 81
1997198N27267 1997 54 NA NA DANNY 1997-07-26 15:00:00 ET 40.7616 -64.3138 main 311 311 P_____________ AL051997 40.7616 -64.3138 EX 40 1003 -4 20 79
1997198N27267 1997 54 NA NA DANNY 1997-07-26 18:00:00 ET 41.0000 -63.0000 40 1004 hurdat_atl main 335 335 O_____________ hurdat_atl AL051997 41.0000 -63.0000 EX 40 1004 -4 19 74
1997198N27267 1997 54 NA NA DANNY 1997-07-26 21:00:00 ET 41.2906 -61.8295 main 370 370 P_____________ AL051997 41.2906 -61.8295 EX 40 1004 -4 21 70
1997198N27267 1997 54 NA NA DANNY 1997-07-27 00:00:00 ET 41.7000 -60.4000 40 1004 hurdat_atl main 384 378 O_____________ hurdat_atl AL051997 41.7000 -60.4000 EX 40 1004 -4 26 69
1997198N27267 1997 54 NA NA DANNY 1997-07-27 03:00:00 ET 42.1955 -58.5945 main 388 388 P_____________ AL051997 42.1955 -58.5945 EX 40 1004 -4 34 71
1997198N27267 1997 54 NA NA DANNY 1997-07-27 06:00:00 ET 42.8000 -56.0000 40 1004 hurdat_atl main 445 356 O_____________ hurdat_atl AL051997 42.8000 -56.0000 EX 40 1004 -4 47 75
1997198N27267 1997 54 NA NA DANNY 1997-07-27 09:00:00 ET 43.4445 -52.3376 main 362 355 P_____________ AL051997 43.4445 -52.3376 EX 35 1004 -4 59 78
1997198N27267 1997 54 NA NA DANNY 1997-07-27 12:00:00 ET 44.0000 -48.0000 30 1005 hurdat_atl main 497 O_____________ hurdat_atl AL051997 44.0000 -48.0000 EX 30 1005 -4 63 80

About IBTrACS Database

This database is a web-friendly format of International Best Track Archive for Climate Stewardship (IBTrACS), a global best track data archive curated by NOAA dating back to 1842.

Updated: 2021-11-26